createdAt,value
2018-12-01T00:00:42.682Z,36.90
2018-12-01T00:01:42.646Z,38.10
2018-12-01T00:02:42.612Z,37.00
2018-12-01T00:03:42.579Z,35.90
2018-12-01T00:04:42.544Z,35.90
2018-12-01T00:05:42.511Z,37.20
2018-12-01T00:06:42.476Z,36.40
2018-12-01T00:07:42.443Z,36.20
2018-12-01T00:08:42.409Z,37.30
2018-12-01T00:09:42.374Z,36.80
2018-12-01T00:10:42.339Z,36.50
2018-12-01T00:11:42.305Z,36.80
2018-12-01T00:12:42.271Z,38.10
2018-12-01T00:13:42.239Z,37.80
2018-12-01T00:14:42.205Z,36.70
2018-12-01T00:15:42.169Z,36.20
2018-12-01T00:16:42.135Z,37.20
2018-12-01T00:17:42.102Z,35.60
2018-12-01T00:18:42.066Z,36.60
2018-12-01T00:19:42.034Z,37.00
2018-12-01T00:20:41.999Z,35.20
2018-12-01T00:21:41.965Z,35.40
2018-12-01T00:22:41.930Z,36.60
2018-12-01T00:23:41.897Z,35.80
2018-12-01T00:24:41.864Z,36.60
2018-12-01T00:25:41.831Z,37.90
2018-12-01T00:26:41.794Z,36.00
2018-12-01T00:27:41.760Z,36.40
2018-12-01T00:28:41.729Z,35.90
2018-12-01T00:29:41.694Z,35.60
2018-12-01T00:30:41.659Z,37.20
2018-12-01T00:31:41.625Z,36.40
2018-12-01T00:32:41.592Z,36.80
2018-12-01T00:33:41.557Z,36.30
2018-12-01T00:34:41.522Z,36.90
2018-12-01T00:35:41.489Z,35.30
2018-12-01T00:36:41.456Z,35.50
2018-12-01T00:37:41.422Z,37.40
2018-12-01T00:38:41.388Z,37.00
2018-12-01T00:39:41.354Z,36.70
2018-12-01T00:40:41.322Z,36.90
2018-12-01T00:41:41.287Z,36.20
2018-12-01T00:42:41.255Z,37.20
2018-12-01T00:43:41.218Z,37.60
2018-12-01T00:44:41.184Z,37.80
2018-12-01T00:45:41.150Z,36.50
2018-12-01T00:46:41.116Z,36.70
2018-12-01T00:47:41.082Z,36.70
2018-12-01T00:48:41.051Z,36.30
2018-12-01T00:49:41.015Z,37.60
2018-12-01T00:50:40.980Z,37.50
2018-12-01T00:51:40.945Z,36.80
2018-12-01T00:52:40.911Z,37.50
2018-12-01T00:53:40.879Z,37.00
2018-12-01T00:54:40.843Z,36.90
2018-12-01T00:55:40.809Z,38.10
2018-12-01T00:56:40.775Z,36.30
2018-12-01T00:57:40.745Z,36.20
2018-12-01T00:58:40.708Z,36.40
2018-12-01T00:59:40.675Z,37.90
2018-12-01T01:00:40.639Z,36.50
2018-12-01T01:01:40.608Z,36.10
2018-12-01T01:02:40.574Z,38.30
2018-12-01T01:03:40.538Z,37.10
2018-12-01T01:04:40.503Z,37.30
2018-12-01T01:05:40.471Z,35.40
2018-12-01T01:06:40.435Z,37.50
2018-12-01T01:07:40.400Z,37.10
2018-12-01T01:08:40.367Z,37.10
2018-12-01T01:09:40.335Z,36.80
2018-12-01T01:10:40.299Z,36.80
2018-12-01T01:11:40.265Z,36.80
2018-12-01T01:12:40.231Z,37.40
2018-12-01T01:13:40.198Z,36.50
2018-12-01T01:14:40.162Z,38.40
2018-12-01T01:15:40.130Z,38.50
2018-12-01T01:16:40.095Z,39.30
2018-12-01T01:17:40.063Z,36.90
2018-12-01T01:18:40.026Z,35.80
2018-12-01T01:19:39.993Z,37.90
2018-12-01T01:20:39.960Z,38.20
2018-12-01T01:21:39.925Z,36.00
2018-12-01T01:22:40.809Z,35.50
2018-12-01T01:23:39.856Z,38.40
2018-12-01T01:24:39.824Z,38.10
2018-12-01T01:25:39.789Z,37.60
2018-12-01T01:26:39.756Z,37.00
2018-12-01T01:27:39.722Z,36.90
2018-12-01T01:28:39.686Z,37.80
2018-12-01T01:29:39.654Z,37.40
2018-12-01T01:30:39.618Z,36.80
2018-12-01T01:31:39.585Z,36.30
2018-12-01T01:32:39.576Z,37.00
2018-12-01T01:33:39.518Z,37.60
2018-12-01T01:34:39.483Z,36.90
2018-12-01T01:35:39.448Z,38.40
2018-12-01T01:36:39.415Z,38.30
2018-12-01T01:37:39.380Z,37.40
2018-12-01T01:38:39.346Z,37.80
2018-12-01T01:39:39.313Z,37.70
2018-12-01T01:40:39.280Z,36.70
2018-12-01T01:41:39.244Z,36.80
2018-12-01T01:42:39.215Z,36.90
2018-12-01T01:43:39.176Z,37.80
2018-12-01T01:44:39.145Z,39.30
2018-12-01T01:45:39.110Z,38.00
2018-12-01T01:46:39.074Z,37.70
2018-12-01T01:47:39.041Z,38.20
2018-12-01T01:48:39.007Z,37.90
2018-12-01T01:49:38.973Z,39.80
2018-12-01T01:50:38.939Z,38.80
2018-12-01T01:51:38.903Z,39.60
2018-12-01T01:52:38.871Z,40.10
2018-12-01T01:53:38.838Z,39.70
2018-12-01T01:54:38.804Z,39.70
2018-12-01T01:55:38.769Z,39.00
2018-12-01T01:56:38.735Z,40.50
2018-12-01T01:57:38.701Z,40.80
2018-12-01T01:58:38.666Z,39.20
2018-12-01T01:59:38.631Z,41.60
2018-12-01T02:00:38.598Z,40.10
2018-12-01T02:01:38.565Z,42.70
2018-12-01T02:02:38.530Z,42.40
2018-12-01T02:03:38.493Z,41.30
2018-12-01T02:04:38.460Z,41.90
2018-12-01T02:05:38.429Z,43.80
2018-12-01T02:06:38.391Z,43.00
2018-12-01T02:07:38.357Z,44.60
2018-12-01T02:08:38.321Z,45.10
2018-12-01T02:09:38.289Z,44.10
2018-12-01T02:10:38.254Z,47.00
2018-12-01T02:11:38.218Z,46.50
2018-12-01T02:12:38.182Z,45.60
2018-12-01T02:13:38.150Z,45.00
2018-12-01T02:14:38.115Z,41.20
2018-12-01T02:15:38.078Z,43.00
2018-12-01T02:16:38.045Z,44.10
2018-12-01T02:17:38.010Z,44.10
2018-12-01T02:18:37.974Z,44.30
2018-12-01T02:19:37.940Z,43.70
2018-12-01T02:20:37.906Z,45.00
2018-12-01T02:21:37.872Z,44.30
2018-12-01T02:22:37.837Z,43.90
2018-12-01T02:23:37.801Z,45.30
2018-12-01T02:24:37.767Z,45.50
2018-12-01T02:25:37.733Z,45.20
2018-12-01T02:26:37.697Z,46.10
2018-12-01T02:27:37.661Z,45.20
2018-12-01T02:28:37.627Z,46.30
2018-12-01T02:29:37.594Z,48.10
2018-12-01T02:30:37.558Z,49.60
2018-12-01T02:31:37.524Z,50.20
2018-12-01T02:32:37.494Z,48.70
2018-12-01T02:33:37.454Z,47.10
2018-12-01T02:34:37.419Z,48.20
2018-12-01T02:35:37.386Z,47.20
2018-12-01T02:36:37.352Z,48.10
2018-12-01T02:37:37.314Z,51.60
2018-12-01T02:38:37.277Z,50.20
2018-12-01T02:39:37.244Z,49.10
2018-12-01T02:40:37.212Z,52.90
2018-12-01T02:41:37.173Z,53.00
2018-12-01T02:42:37.138Z,52.00
2018-12-01T02:43:37.103Z,48.80
2018-12-01T02:44:37.069Z,50.30
2018-12-01T02:45:37.035Z,47.10
2018-12-01T02:46:36.999Z,47.00
2018-12-01T02:47:36.966Z,48.70
2018-12-01T02:48:36.927Z,49.00
2018-12-01T02:49:36.893Z,47.10
2018-12-01T02:50:36.858Z,49.20
2018-12-01T02:51:36.822Z,51.70
2018-12-01T02:52:36.791Z,49.60
2018-12-01T02:53:36.752Z,51.40
2018-12-01T02:54:36.716Z,53.50
2018-12-01T02:55:36.683Z,57.40
2018-12-01T02:56:36.648Z,54.30
2018-12-01T02:57:36.612Z,53.10
2018-12-01T02:58:36.575Z,49.70
2018-12-01T02:59:36.541Z,54.10
2018-12-01T03:00:36.505Z,57.60
2018-12-01T03:01:36.471Z,53.90
2018-12-01T03:02:36.435Z,52.20
2018-12-01T03:03:36.400Z,63.40
2018-12-01T03:04:36.364Z,56.70
2018-12-01T03:05:36.329Z,58.00
2018-12-01T03:06:36.292Z,57.40
2018-12-01T03:07:36.258Z,54.80
2018-12-01T03:08:36.223Z,61.70
2018-12-01T03:09:36.187Z,53.10
2018-12-01T03:10:36.150Z,51.00
2018-12-01T03:11:36.115Z,50.00
2018-12-01T03:12:36.081Z,53.10
2018-12-01T03:13:36.046Z,52.70
2018-12-01T03:14:36.008Z,51.50
2018-12-01T03:15:35.977Z,53.30
2018-12-01T03:16:35.939Z,49.00
2018-12-01T03:17:35.902Z,51.70
2018-12-01T03:18:35.868Z,53.90
2018-12-01T03:19:35.832Z,53.50
2018-12-01T03:20:35.796Z,51.60
2018-12-01T03:21:35.763Z,53.70
2018-12-01T03:22:35.727Z,57.50
2018-12-01T03:23:35.689Z,57.50
2018-12-01T03:24:35.653Z,58.30
2018-12-01T03:25:35.617Z,58.20
2018-12-01T03:26:35.581Z,59.30
2018-12-01T03:27:35.544Z,55.90
2018-12-01T03:28:35.510Z,62.70
2018-12-01T03:29:35.474Z,67.50
2018-12-01T03:30:35.441Z,60.60
2018-12-01T03:31:35.402Z,60.40
2018-12-01T03:32:35.366Z,62.70
2018-12-01T03:33:35.329Z,60.50
2018-12-01T03:34:35.292Z,57.80
2018-12-01T03:35:35.259Z,66.40
2018-12-01T03:36:35.221Z,62.00
2018-12-01T03:37:35.185Z,54.70
2018-12-01T03:38:35.150Z,56.10
2018-12-01T03:39:35.114Z,55.00
2018-12-01T03:40:35.077Z,52.60
2018-12-01T03:41:35.043Z,52.00
2018-12-01T03:42:35.004Z,51.60
2018-12-01T03:43:34.969Z,50.90
2018-12-01T03:44:34.934Z,53.40
2018-12-01T03:45:34.897Z,58.20
2018-12-01T03:46:34.860Z,66.40
2018-12-01T03:47:34.824Z,63.70
2018-12-01T03:48:34.789Z,64.00
2018-12-01T03:49:34.753Z,59.80
2018-12-01T03:50:34.716Z,66.00
2018-12-01T03:51:34.681Z,72.20
2018-12-01T03:52:34.644Z,61.30
2018-12-01T03:53:34.609Z,58.20
2018-12-01T03:54:34.573Z,62.30
2018-12-01T03:55:34.536Z,62.50
2018-12-01T03:56:34.501Z,60.00
2018-12-01T03:57:34.464Z,64.20
2018-12-01T03:58:34.426Z,63.60
2018-12-01T03:59:34.391Z,63.00
2018-12-01T04:00:34.355Z,64.50
2018-12-01T04:01:34.319Z,63.00
2018-12-01T04:02:34.281Z,59.40
2018-12-01T04:03:34.245Z,59.10
2018-12-01T04:04:34.218Z,55.30
2018-12-01T04:05:34.174Z,56.90
2018-12-01T04:06:34.137Z,56.00
2018-12-01T04:07:34.100Z,54.30
2018-12-01T04:08:34.064Z,53.50
2018-12-01T04:09:34.029Z,53.30
2018-12-01T04:10:33.991Z,54.40
2018-12-01T04:11:33.956Z,55.00
2018-12-01T04:12:33.918Z,55.30
2018-12-01T04:13:33.882Z,56.20
2018-12-01T04:14:33.846Z,59.60
2018-12-01T04:15:33.811Z,58.00
2018-12-01T04:16:33.774Z,56.20
2018-12-01T04:17:33.738Z,64.40
2018-12-01T04:18:33.699Z,57.10
2018-12-01T04:19:33.664Z,63.10
2018-12-01T04:20:33.627Z,58.80
2018-12-01T04:21:33.592Z,54.80
2018-12-01T04:22:33.554Z,53.90
2018-12-01T04:23:33.518Z,52.00
2018-12-01T04:24:33.482Z,51.90
2018-12-01T04:25:33.446Z,54.60
2018-12-01T04:26:33.408Z,58.70
2018-12-01T04:27:33.373Z,64.70
2018-12-01T04:28:33.335Z,58.70
2018-12-01T04:29:33.301Z,53.80
2018-12-01T04:30:33.266Z,56.40
2018-12-01T04:31:33.225Z,59.30
2018-12-01T04:32:33.190Z,62.60
2018-12-01T04:33:33.155Z,58.70
2018-12-01T04:34:33.116Z,55.90
2018-12-01T04:35:33.080Z,51.40
2018-12-01T04:36:33.043Z,52.80
2018-12-01T04:37:33.007Z,53.90
2018-12-01T04:38:32.970Z,54.90
2018-12-01T04:39:32.937Z,54.30
2018-12-01T04:40:32.897Z,53.10
2018-12-01T04:41:32.862Z,51.10
2018-12-01T04:42:32.823Z,54.10
2018-12-01T04:43:32.787Z,51.10
2018-12-01T04:44:32.751Z,50.80
2018-12-01T04:45:32.714Z,50.70
2018-12-01T04:46:32.685Z,53.40
2018-12-01T04:47:32.641Z,50.60
2018-12-01T04:48:32.604Z,48.30
2018-12-01T04:49:32.569Z,53.60
2018-12-01T04:50:32.534Z,52.50
2018-12-01T04:51:32.493Z,58.20
2018-12-01T04:52:32.459Z,51.10
2018-12-01T04:53:32.420Z,50.40
2018-12-01T04:54:32.384Z,48.80
2018-12-01T04:55:32.346Z,49.80
2018-12-01T04:56:32.311Z,48.30
2018-12-01T04:57:32.273Z,47.80
2018-12-01T04:58:32.237Z,50.60
2018-12-01T04:59:32.200Z,48.60
2018-12-01T05:00:32.164Z,50.00
2018-12-01T05:01:32.127Z,52.60
2018-12-01T05:02:32.090Z,51.20
2018-12-01T05:03:32.055Z,49.60
2018-12-01T05:04:32.017Z,51.60
2018-12-01T05:05:31.983Z,54.00
2018-12-01T05:06:31.944Z,53.40
2018-12-01T05:07:31.907Z,50.70
2018-12-01T05:08:31.872Z,54.70
2018-12-01T05:09:31.836Z,51.10
2018-12-01T05:10:31.797Z,53.90
2018-12-01T05:11:31.764Z,55.60
2018-12-01T05:12:31.726Z,55.30
2018-12-01T05:13:31.688Z,56.40
2018-12-01T05:14:31.651Z,51.70
2018-12-01T05:15:31.619Z,50.50
2018-12-01T05:16:31.586Z,47.40
2018-12-01T05:17:31.542Z,51.20
2018-12-01T05:18:31.506Z,48.80
2018-12-01T05:19:31.470Z,51.70
2018-12-01T05:20:31.435Z,48.40
2018-12-01T05:21:31.396Z,50.30
2018-12-01T05:22:31.359Z,48.20
2018-12-01T05:23:31.323Z,48.10
2018-12-01T05:24:31.286Z,49.90
2018-12-01T05:25:31.250Z,48.70
2018-12-01T05:26:31.212Z,46.40
2018-12-01T05:27:31.178Z,49.60
2018-12-01T05:28:31.140Z,52.40
2018-12-01T05:29:31.105Z,51.80
2018-12-01T05:30:31.070Z,50.50
2018-12-01T05:31:31.030Z,48.10
2018-12-01T05:32:30.995Z,48.90
2018-12-01T05:33:30.958Z,47.90
2018-12-01T05:34:30.921Z,49.00
2018-12-01T05:35:30.883Z,46.60
2018-12-01T05:36:30.849Z,46.20
2018-12-01T05:37:30.812Z,46.60
2018-12-01T05:38:30.773Z,53.20
2018-12-01T05:39:30.736Z,45.80
2018-12-01T05:40:30.701Z,46.20
2018-12-01T05:41:30.665Z,47.60
2018-12-01T05:42:30.627Z,51.30
2018-12-01T05:43:30.590Z,43.40
2018-12-01T05:44:30.554Z,44.20
2018-12-01T05:45:30.518Z,47.10
2018-12-01T05:46:30.479Z,45.70
2018-12-01T05:47:30.443Z,44.90
2018-12-01T05:48:30.407Z,45.30
2018-12-01T05:49:30.371Z,48.00
2018-12-01T05:50:30.332Z,45.20
2018-12-01T05:51:30.298Z,44.40
2018-12-01T05:52:30.260Z,42.40
2018-12-01T05:53:30.222Z,44.70
2018-12-01T05:54:30.186Z,46.00
2018-12-01T05:55:30.148Z,48.70
2018-12-01T05:56:30.114Z,45.50
2018-12-01T05:57:30.076Z,43.10
2018-12-01T05:58:30.038Z,45.10
2018-12-01T05:59:30.003Z,45.50
2018-12-01T06:00:29.965Z,46.50
2018-12-01T06:01:29.928Z,47.40
2018-12-01T06:02:29.891Z,47.30
2018-12-01T06:03:29.859Z,47.50
2018-12-01T06:04:29.816Z,47.70
2018-12-01T06:05:29.781Z,47.30
2018-12-01T06:06:29.744Z,47.30
2018-12-01T06:07:29.706Z,46.40
2018-12-01T06:08:29.670Z,46.00
2018-12-01T06:09:29.632Z,47.50
2018-12-01T06:10:29.595Z,46.90
2018-12-01T06:11:29.560Z,42.70
2018-12-01T06:12:29.523Z,44.70
2018-12-01T06:13:29.486Z,44.60
2018-12-01T06:14:29.447Z,46.60
2018-12-01T06:15:29.412Z,43.90
2018-12-01T06:16:29.375Z,47.30
2018-12-01T06:17:29.339Z,43.60
2018-12-01T06:18:29.300Z,46.00
2018-12-01T06:19:29.264Z,49.40
2018-12-01T06:20:29.233Z,49.20
2018-12-01T06:21:29.192Z,47.70
2018-12-01T06:22:29.157Z,54.20
2018-12-01T06:23:29.117Z,51.60
2018-12-01T06:24:29.081Z,49.10
2018-12-01T06:25:29.044Z,50.00
2018-12-01T06:26:29.008Z,49.10
2018-12-01T06:27:28.969Z,50.30
2018-12-01T06:28:28.937Z,53.00
2018-12-01T06:29:28.898Z,48.90
2018-12-01T06:30:28.860Z,47.50
2018-12-01T06:31:28.824Z,51.30
2018-12-01T06:32:28.788Z,45.30
2018-12-01T06:33:28.751Z,44.50
2018-12-01T06:34:28.714Z,46.60
2018-12-01T06:35:28.679Z,47.80
2018-12-01T06:36:28.643Z,45.70
2018-12-01T06:37:28.607Z,45.10
2018-12-01T06:38:28.570Z,42.60
2018-12-01T06:39:28.535Z,53.70
2018-12-01T06:40:28.499Z,63.00
2018-12-01T06:41:28.464Z,87.60
2018-12-01T06:42:28.426Z,97.40
2018-12-01T06:43:28.391Z,89.90
2018-12-01T06:44:28.354Z,82.90
2018-12-01T06:45:28.320Z,93.20
2018-12-01T06:46:28.282Z,83.10
2018-12-01T06:47:28.246Z,83.90
2018-12-01T06:48:28.209Z,65.00
2018-12-01T06:49:28.176Z,67.30
2018-12-01T06:50:28.139Z,61.90
2018-12-01T06:51:28.102Z,56.30
2018-12-01T06:52:28.067Z,58.60
2018-12-01T06:53:28.030Z,46.20
2018-12-01T06:54:27.994Z,54.00
2018-12-01T06:55:27.958Z,52.70
2018-12-01T06:56:27.920Z,50.00
2018-12-01T06:57:27.885Z,47.70
2018-12-01T06:58:27.849Z,42.60
2018-12-01T06:59:27.814Z,43.60
2018-12-01T07:00:27.777Z,45.00
2018-12-01T07:01:27.740Z,45.90
2018-12-01T07:02:27.705Z,43.50
2018-12-01T07:03:27.672Z,43.20
2018-12-01T07:04:27.633Z,41.70
2018-12-01T07:05:27.597Z,41.00
2018-12-01T07:06:27.559Z,42.30
2018-12-01T07:07:27.523Z,42.90
2018-12-01T07:08:27.487Z,43.10
2018-12-01T07:09:27.451Z,39.20
2018-12-01T07:10:27.416Z,40.70
2018-12-01T07:11:27.379Z,40.10
2018-12-01T07:12:27.343Z,41.30
2018-12-01T07:13:27.309Z,40.90
2018-12-01T07:14:27.272Z,40.00
2018-12-01T07:15:27.237Z,40.00
2018-12-01T07:16:27.199Z,41.30
2018-12-01T07:17:27.170Z,39.50
2018-12-01T07:18:27.130Z,42.00
2018-12-01T07:19:27.093Z,39.70
2018-12-01T07:20:27.055Z,37.90
2018-12-01T07:21:27.022Z,36.50
2018-12-01T07:22:26.984Z,38.50
2018-12-01T07:23:26.950Z,39.30
2018-12-01T07:24:26.913Z,39.40
2018-12-01T07:25:26.880Z,36.70
2018-12-01T07:26:26.841Z,38.20
2018-12-01T07:27:26.807Z,39.40
2018-12-01T07:28:26.774Z,39.00
2018-12-01T07:29:26.735Z,39.30
2018-12-01T07:30:26.699Z,37.80
2018-12-01T07:31:26.664Z,36.20
2018-12-01T07:32:26.628Z,37.50
2018-12-01T07:33:26.593Z,37.30
2018-12-01T07:34:26.557Z,38.40
2018-12-01T07:35:26.522Z,37.30
2018-12-01T07:36:26.490Z,37.00
2018-12-01T07:37:26.452Z,36.00
2018-12-01T07:38:26.415Z,36.60
2018-12-01T07:39:26.379Z,37.10
2018-12-01T07:40:26.346Z,36.70
2018-12-01T07:41:26.310Z,36.10
2018-12-01T07:42:26.273Z,36.70
2018-12-01T07:43:26.238Z,35.30
2018-12-01T07:44:26.203Z,36.30
2018-12-01T07:45:26.167Z,34.70
2018-12-01T07:46:26.133Z,36.80
2018-12-01T07:47:26.098Z,38.10
2018-12-01T07:48:26.061Z,37.50
2018-12-01T07:49:26.030Z,36.10
2018-12-01T07:50:25.992Z,35.80
2018-12-01T07:51:25.955Z,35.50
2018-12-01T07:52:25.920Z,36.10
2018-12-01T07:53:25.884Z,37.40
2018-12-01T07:54:25.848Z,37.20
2018-12-01T07:55:25.816Z,35.70
2018-12-01T07:56:25.780Z,35.60
2018-12-01T07:57:25.744Z,35.00
2018-12-01T07:58:25.707Z,35.90
2018-12-01T07:59:25.671Z,36.30
2018-12-01T08:00:25.635Z,34.20
2018-12-01T08:01:25.601Z,33.20
2018-12-01T08:02:25.566Z,32.20
2018-12-01T08:03:25.533Z,31.40
2018-12-01T08:04:25.497Z,34.10
2018-12-01T08:05:25.460Z,33.80
2018-12-01T08:06:25.424Z,33.00
2018-12-01T08:07:25.394Z,33.70
2018-12-01T08:08:25.354Z,33.40
2018-12-01T08:09:25.318Z,36.90
2018-12-01T08:10:25.283Z,36.50
2018-12-01T08:11:25.249Z,36.30
2018-12-01T08:12:25.213Z,35.50
2018-12-01T08:13:25.180Z,33.40
2018-12-01T08:14:25.143Z,31.90
2018-12-01T08:15:25.108Z,32.00
2018-12-01T08:16:25.076Z,31.70
2018-12-01T08:17:25.038Z,31.40
2018-12-01T08:18:25.004Z,32.50
2018-12-01T08:19:24.971Z,31.90
2018-12-01T08:20:24.937Z,31.80
2018-12-01T08:21:24.901Z,32.20
2018-12-01T08:22:24.864Z,38.50
2018-12-01T08:23:24.831Z,37.90
2018-12-01T08:24:24.796Z,34.00
2018-12-01T08:25:24.760Z,32.10
2018-12-01T08:26:24.727Z,32.70
2018-12-01T08:27:24.692Z,30.00
2018-12-01T08:28:24.658Z,28.30
2018-12-01T08:29:24.624Z,29.10
2018-12-01T08:30:24.587Z,31.90
2018-12-01T08:31:24.554Z,30.30
2018-12-01T08:32:24.522Z,30.60
2018-12-01T08:33:24.486Z,34.20
2018-12-01T08:34:24.452Z,30.20
2018-12-01T08:35:24.416Z,29.90
2018-12-01T08:36:24.383Z,28.50
2018-12-01T08:37:24.350Z,31.30
2018-12-01T08:38:24.316Z,37.20
2018-12-01T08:39:24.281Z,33.00
2018-12-01T08:40:24.247Z,33.40
2018-12-01T08:41:24.214Z,37.40
2018-12-01T08:42:24.179Z,33.90
2018-12-01T08:43:24.145Z,32.60
2018-12-01T08:44:24.112Z,34.70
2018-12-01T08:45:24.079Z,32.40
2018-12-01T08:46:24.045Z,31.50
2018-12-01T08:47:24.011Z,32.80
2018-12-01T08:48:23.978Z,32.10
2018-12-01T08:49:23.945Z,30.40
2018-12-01T08:50:23.911Z,29.90
2018-12-01T08:51:23.876Z,30.90
2018-12-01T08:52:23.843Z,30.00
2018-12-01T08:53:23.814Z,29.60
2018-12-01T08:54:23.777Z,30.70
2018-12-01T08:55:23.745Z,30.90
2018-12-01T08:56:23.712Z,29.90
2018-12-01T08:57:23.680Z,28.50
2018-12-01T08:58:23.645Z,28.40
2018-12-01T08:59:23.612Z,28.30
2018-12-01T09:00:23.583Z,27.50
2018-12-01T09:01:23.546Z,28.80
2018-12-01T09:02:23.512Z,28.10
2018-12-01T09:03:23.482Z,27.20
2018-12-01T09:04:23.448Z,27.40
2018-12-01T09:05:23.415Z,25.40
2018-12-01T09:06:23.381Z,26.00
2018-12-01T09:07:23.352Z,25.90
2018-12-01T09:08:23.313Z,25.60
2018-12-01T09:09:23.283Z,23.50
2018-12-01T09:10:23.250Z,23.60
2018-12-01T09:11:23.216Z,24.30
2018-12-01T09:12:23.184Z,24.70
2018-12-01T09:13:23.151Z,24.40
2018-12-01T09:14:23.122Z,22.40
2018-12-01T09:15:23.087Z,23.60
2018-12-01T09:16:23.052Z,22.70
2018-12-01T09:17:23.020Z,22.60
2018-12-01T09:18:22.985Z,22.50
2018-12-01T09:19:22.955Z,22.40
2018-12-01T09:20:22.920Z,21.00
2018-12-01T09:21:22.888Z,21.60
2018-12-01T09:22:22.854Z,21.50
2018-12-01T09:23:22.821Z,20.80
2018-12-01T09:24:22.825Z,21.60
2018-12-01T09:25:22.758Z,19.80
2018-12-01T09:26:22.724Z,21.30
2018-12-01T09:27:22.803Z,20.50
2018-12-01T09:28:22.660Z,20.90
2018-12-01T09:29:22.627Z,20.80
2018-12-01T09:30:22.596Z,19.50
2018-12-01T09:31:22.561Z,19.20
2018-12-01T09:32:22.529Z,19.00
2018-12-01T09:33:22.497Z,18.20
2018-12-01T09:34:22.464Z,19.60
2018-12-01T09:35:22.432Z,19.50
2018-12-01T09:36:22.401Z,17.20
2018-12-01T09:37:22.368Z,17.50
2018-12-01T09:38:22.335Z,18.30
2018-12-01T09:39:22.304Z,18.50
2018-12-01T09:40:22.271Z,18.50
2018-12-01T09:41:22.238Z,18.80
2018-12-01T09:42:24.771Z,17.70
2018-12-01T09:43:22.175Z,17.70
2018-12-01T09:44:22.141Z,18.00
2018-12-01T09:45:22.111Z,17.90
2018-12-01T09:46:22.076Z,18.50
2018-12-01T09:47:22.045Z,16.30
2018-12-01T09:48:22.013Z,17.80
2018-12-01T09:49:21.983Z,16.60
2018-12-01T09:50:21.954Z,18.00
2018-12-01T09:51:21.919Z,17.10
2018-12-01T09:52:21.886Z,17.30
2018-12-01T09:53:21.853Z,17.00
2018-12-01T09:54:21.820Z,17.20
2018-12-01T09:55:21.793Z,15.70
2018-12-01T09:56:21.758Z,15.80
2018-12-01T09:57:21.726Z,16.50
2018-12-01T09:58:21.694Z,16.20
2018-12-01T09:59:21.668Z,15.60
2018-12-01T10:00:21.630Z,16.20
2018-12-01T10:01:21.600Z,15.40
2018-12-01T10:02:21.566Z,15.50
2018-12-01T10:03:21.538Z,15.60
2018-12-01T10:04:21.510Z,14.80
2018-12-01T10:05:21.476Z,15.40
2018-12-01T10:06:21.451Z,15.50
2018-12-01T10:07:21.416Z,14.80
2018-12-01T10:08:21.383Z,15.00
2018-12-01T10:09:21.349Z,14.80
2018-12-01T10:10:21.318Z,14.80
2018-12-01T10:11:21.287Z,13.70
2018-12-01T10:12:21.258Z,15.10
2018-12-01T10:13:21.224Z,15.20
2018-12-01T10:14:21.192Z,16.10
2018-12-01T10:15:21.163Z,14.40
2018-12-01T10:16:21.130Z,14.60
2018-12-01T10:17:21.099Z,15.10
2018-12-01T10:18:21.070Z,15.90
2018-12-01T10:19:21.036Z,16.10
2018-12-01T10:20:21.007Z,14.70
2018-12-01T10:21:20.974Z,15.60
2018-12-01T10:22:20.943Z,15.40
2018-12-01T10:23:20.912Z,15.40
2018-12-01T10:24:20.881Z,15.70
2018-12-01T10:25:20.852Z,14.80
2018-12-01T10:26:20.819Z,13.90
2018-12-01T10:27:20.789Z,14.60
2018-12-01T10:28:20.759Z,14.80
2018-12-01T10:29:20.726Z,14.40
2018-12-01T10:30:20.694Z,14.30
2018-12-01T10:31:20.664Z,14.50
2018-12-01T10:32:20.633Z,13.90
2018-12-01T10:33:20.603Z,13.80
2018-12-01T10:34:20.572Z,13.90
2018-12-01T10:35:20.540Z,13.30
2018-12-01T10:36:20.509Z,13.50
2018-12-01T10:37:20.480Z,12.60
2018-12-01T10:38:20.449Z,13.10
2018-12-01T10:39:20.420Z,12.60
2018-12-01T10:40:20.389Z,12.70
2018-12-01T10:41:20.359Z,11.80
2018-12-01T10:42:20.329Z,12.00
2018-12-01T10:43:20.298Z,12.40
2018-12-01T10:44:20.269Z,11.90
2018-12-01T10:45:20.239Z,12.40
2018-12-01T10:46:20.210Z,11.30
2018-12-01T10:47:20.179Z,11.80
2018-12-01T10:48:20.151Z,12.60
2018-12-01T10:49:20.121Z,12.30
2018-12-01T10:50:20.097Z,11.90
2018-12-01T10:51:20.062Z,11.70
2018-12-01T10:52:20.033Z,11.60
2018-12-01T10:53:20.002Z,11.40
2018-12-01T10:54:19.973Z,11.50
2018-12-01T10:55:19.942Z,12.10
2018-12-01T10:56:19.915Z,11.30
2018-12-01T10:57:19.889Z,11.10
2018-12-01T10:58:19.855Z,11.70
2018-12-01T10:59:19.825Z,11.00
2018-12-01T11:00:19.796Z,12.00
2018-12-01T11:01:19.766Z,10.90
2018-12-01T11:02:19.735Z,11.30
2018-12-01T11:03:19.706Z,10.90
2018-12-01T11:04:19.677Z,10.60
2018-12-01T11:05:19.648Z,10.90
2018-12-01T11:06:19.620Z,11.50
2018-12-01T11:07:19.589Z,11.50
2018-12-01T11:08:19.560Z,11.00
2018-12-01T11:09:19.529Z,10.60
2018-12-01T11:10:19.500Z,10.70
2018-12-01T11:11:19.469Z,10.40
2018-12-01T11:12:19.440Z,10.00
2018-12-01T11:13:19.415Z,11.00
2018-12-01T11:14:19.380Z,10.90
2018-12-01T11:15:19.350Z,10.40
2018-12-01T11:16:19.321Z,9.40
2018-12-01T11:17:19.296Z,10.20
2018-12-01T11:18:19.262Z,11.00
2018-12-01T11:19:19.232Z,10.50
2018-12-01T11:20:19.203Z,10.10
2018-12-01T11:21:19.173Z,9.40
2018-12-01T11:22:19.144Z,10.40
2018-12-01T11:23:19.113Z,10.60
2018-12-01T11:24:19.084Z,9.50
2018-12-01T11:25:19.058Z,9.70
2018-12-01T11:26:19.026Z,10.30
2018-12-01T11:27:18.995Z,10.40
2018-12-01T11:28:18.967Z,9.90
2018-12-01T11:29:18.940Z,11.10
2018-12-01T11:30:18.925Z,9.80
2018-12-01T11:31:18.879Z,9.50
2018-12-01T11:32:18.848Z,9.70
2018-12-01T11:33:18.820Z,9.60
2018-12-01T11:34:18.789Z,9.50
2018-12-01T11:35:18.759Z,9.60
2018-12-01T11:36:18.731Z,9.10
2018-12-01T11:37:18.700Z,9.60
2018-12-01T11:38:18.671Z,9.70
2018-12-01T11:39:18.642Z,10.00
2018-12-01T11:40:18.612Z,8.80
2018-12-01T11:41:18.584Z,9.30
2018-12-01T11:42:18.553Z,8.70
2018-12-01T11:43:18.523Z,9.30
2018-12-01T11:44:18.494Z,8.90
2018-12-01T11:45:18.464Z,9.50
2018-12-01T11:46:18.435Z,9.70
2018-12-01T11:47:18.405Z,9.40
2018-12-01T11:48:18.377Z,11.50
2018-12-01T11:49:18.349Z,8.60
2018-12-01T11:50:18.315Z,8.50
2018-12-01T11:51:18.295Z,8.60
2018-12-01T11:52:18.257Z,8.80
2018-12-01T11:53:18.228Z,8.80
2018-12-01T11:54:18.198Z,8.40
2018-12-01T11:55:18.169Z,8.30
2018-12-01T11:56:18.140Z,8.60
2018-12-01T11:57:18.110Z,8.40
2018-12-01T11:58:18.131Z,8.90
2018-12-01T11:59:18.051Z,8.90
2018-12-01T12:00:18.026Z,8.00
2018-12-01T12:01:17.992Z,8.80
2018-12-01T12:02:17.962Z,11.00
2018-12-01T12:03:17.938Z,9.20
2018-12-01T12:04:17.903Z,8.70
2018-12-01T12:05:17.875Z,8.10
2018-12-01T12:06:17.846Z,8.00
2018-12-01T12:07:17.816Z,8.40
2018-12-01T12:08:17.788Z,8.40
2018-12-01T12:09:17.758Z,8.30
2018-12-01T12:10:17.736Z,8.60
2018-12-01T12:11:17.700Z,8.80
2018-12-01T12:12:17.671Z,8.00
2018-12-01T12:13:17.642Z,14.60
2018-12-01T12:14:17.611Z,8.90
2018-12-01T12:15:17.585Z,10.70
2018-12-01T12:16:17.554Z,13.10
2018-12-01T12:17:17.524Z,8.40
2018-12-01T12:18:17.494Z,7.30
2018-12-01T12:19:17.465Z,8.00
2018-12-01T12:20:17.437Z,8.00
2018-12-01T12:21:17.413Z,8.00
2018-12-01T12:22:17.376Z,11.20
2018-12-01T12:23:17.350Z,11.00
2018-12-01T12:24:17.319Z,7.00
2018-12-01T12:25:17.288Z,7.30
2018-12-01T12:26:17.258Z,8.50
2018-12-01T12:27:17.229Z,6.80
2018-12-01T12:28:17.350Z,7.30
2018-12-01T12:29:17.170Z,10.10
2018-12-01T12:30:17.139Z,10.70
2018-12-01T12:31:17.109Z,6.70
2018-12-01T12:32:17.090Z,6.70
2018-12-01T12:33:17.050Z,8.20
2018-12-01T12:34:17.020Z,8.20
2018-12-01T12:35:16.991Z,11.00
2018-12-01T12:36:16.961Z,11.90
2018-12-01T12:37:16.931Z,16.30
2018-12-01T12:38:16.900Z,10.10
2018-12-01T12:39:16.870Z,7.50
2018-12-01T12:40:16.841Z,6.90
2018-12-01T12:41:16.811Z,7.00
2018-12-01T12:42:16.780Z,7.00
2018-12-01T12:43:16.750Z,6.70
2018-12-01T12:44:16.723Z,6.80
2018-12-01T12:45:16.690Z,5.80
2018-12-01T12:46:16.660Z,6.30
2018-12-01T12:47:16.631Z,5.50
2018-12-01T12:48:16.600Z,6.30
2018-12-01T12:49:16.571Z,6.50
2018-12-01T12:50:16.539Z,6.40
2018-12-01T12:51:16.510Z,6.80
2018-12-01T12:52:16.480Z,6.90
2018-12-01T12:53:16.451Z,5.50
2018-12-01T12:54:16.420Z,6.10
2018-12-01T12:55:16.389Z,5.90